sensor_id;sensor_type;location;lat;lon;timestamp;P1;durP1;ratioP1;P2;durP2;ratioP2
7377;SDS011;3730;50.856;12.776;2023-09-19T00:00:14;3.50;;;2.20;;
7377;SDS011;3730;50.856;12.776;2023-09-19T00:02:40;7.10;;;1.90;;
7377;SDS011;3730;50.856;12.776;2023-09-19T00:05:06;3.17;;;1.67;;
7377;SDS011;3730;50.856;12.776;2023-09-19T00:07:33;2.23;;;1.50;;
7377;SDS011;3730;50.856;12.776;2023-09-19T00:10:01;2.27;;;1.50;;
7377;SDS011;3730;50.856;12.776;2023-09-19T00:12:27;3.00;;;1.33;;
7377;SDS011;3730;50.856;12.776;2023-09-19T00:14:53;4.87;;;1.70;;
7377;SDS011;3730;50.856;12.776;2023-09-19T00:17:21;1.40;;;1.23;;
7377;SDS011;3730;50.856;12.776;2023-09-19T00:19:47;2.13;;;1.40;;
7377;SDS011;3730;50.856;12.776;2023-09-19T00:22:13;1.90;;;1.37;;
7377;SDS011;3730;50.856;12.776;2023-09-19T00:24:41;1.87;;;1.60;;
7377;SDS011;3730;50.856;12.776;2023-09-19T00:27:07;2.17;;;1.50;;
7377;SDS011;3730;50.856;12.776;2023-09-19T00:29:33;1.60;;;1.40;;
7377;SDS011;3730;50.856;12.776;2023-09-19T00:31:59;4.97;;;1.60;;
7377;SDS011;3730;50.856;12.776;2023-09-19T00:34:28;1.60;;;1.50;;
7377;SDS011;3730;50.856;12.776;2023-09-19T00:36:54;1.90;;;1.67;;
7377;SDS011;3730;50.856;12.776;2023-09-19T00:39:20;2.97;;;1.50;;
7377;SDS011;3730;50.856;12.776;2023-09-19T00:41:47;3.43;;;1.70;;
7377;SDS011;3730;50.856;12.776;2023-09-19T00:44:13;2.53;;;1.47;;
7377;SDS011;3730;50.856;12.776;2023-09-19T00:46:40;2.73;;;1.60;;
7377;SDS011;3730;50.856;12.776;2023-09-19T00:49:07;3.03;;;1.20;;
7377;SDS011;3730;50.856;12.776;2023-09-19T00:51:37;3.77;;;1.47;;
7377;SDS011;3730;50.856;12.776;2023-09-19T00:54:06;1.50;;;1.40;;
7377;SDS011;3730;50.856;12.776;2023-09-19T00:56:32;1.67;;;1.30;;
7377;SDS011;3730;50.856;12.776;2023-09-19T00:58:59;1.33;;;1.20;;
7377;SDS011;3730;50.856;12.776;2023-09-19T01:01:27;1.80;;;1.30;;
7377;SDS011;3730;50.856;12.776;2023-09-19T01:03:53;1.67;;;1.30;;
7377;SDS011;3730;50.856;12.776;2023-09-19T01:06:20;2.10;;;1.23;;
7377;SDS011;3730;50.856;12.776;2023-09-19T01:08:46;3.67;;;1.30;;
7377;SDS011;3730;50.856;12.776;2023-09-19T01:11:15;1.93;;;1.40;;
7377;SDS011;3730;50.856;12.776;2023-09-19T01:16:13;2.77;;;1.30;;
7377;SDS011;3730;50.856;12.776;2023-09-19T01:18:45;2.10;;;1.50;;
7377;SDS011;3730;50.856;12.776;2023-09-19T01:22:14;1.57;;;1.47;;
7377;SDS011;3730;50.856;12.776;2023-09-19T01:32:04;5.33;;;1.40;;
7377;SDS011;3730;50.856;12.776;2023-09-19T01:34:46;3.83;;;1.67;;
7377;SDS011;3730;50.856;12.776;2023-09-19T01:37:14;1.43;;;1.33;;
7377;SDS011;3730;50.856;12.776;2023-09-19T01:39:44;2.60;;;1.20;;
7377;SDS011;3730;50.856;12.776;2023-09-19T01:45:17;2.70;;;1.30;;
7377;SDS011;3730;50.856;12.776;2023-09-19T01:47:50;3.03;;;1.13;;
7377;SDS011;3730;50.856;12.776;2023-09-19T01:50:42;3.30;;;1.60;;
7377;SDS011;3730;50.856;12.776;2023-09-19T01:53:19;3.33;;;1.33;;
7377;SDS011;3730;50.856;12.776;2023-09-19T01:55:48;1.50;;;1.40;;
7377;SDS011;3730;50.856;12.776;2023-09-19T02:00:41;1.93;;;1.33;;
7377;SDS011;3730;50.856;12.776;2023-09-19T02:03:09;1.77;;;1.67;;
7377;SDS011;3730;50.856;12.776;2023-09-19T02:05:35;1.13;;;1.10;;
7377;SDS011;3730;50.856;12.776;2023-09-19T02:08:01;2.43;;;1.50;;
7377;SDS011;3730;50.856;12.776;2023-09-19T02:10:27;1.90;;;1.40;;
7377;SDS011;3730;50.856;12.776;2023-09-19T02:12:53;2.60;;;1.60;;
7377;SDS011;3730;50.856;12.776;2023-09-19T02:15:19;2.50;;;1.50;;
7377;SDS011;3730;50.856;12.776;2023-09-19T02:17:47;2.03;;;1.40;;
7377;SDS011;3730;50.856;12.776;2023-09-19T02:20:13;1.50;;;1.30;;
7377;SDS011;3730;50.856;12.776;2023-09-19T02:22:43;3.07;;;1.23;;
7377;SDS011;3730;50.856;12.776;2023-09-19T02:25:09;1.60;;;1.50;;
7377;SDS011;3730;50.856;12.776;2023-09-19T02:27:36;3.33;;;1.50;;
7377;SDS011;3730;50.856;12.776;2023-09-19T02:30:02;2.30;;;1.80;;
7377;SDS011;3730;50.856;12.776;2023-09-19T02:32:28;1.90;;;1.53;;
7377;SDS011;3730;50.856;12.776;2023-09-19T02:34:56;1.70;;;1.50;;
7377;SDS011;3730;50.856;12.776;2023-09-19T02:37:22;1.63;;;1.50;;
7377;SDS011;3730;50.856;12.776;2023-09-19T02:39:48;2.27;;;1.43;;
7377;SDS011;3730;50.856;12.776;2023-09-19T02:42:14;4.17;;;1.73;;
7377;SDS011;3730;50.856;12.776;2023-09-19T02:44:40;4.10;;;1.83;;
7377;SDS011;3730;50.856;12.776;2023-09-19T02:47:06;2.40;;;1.83;;
7377;SDS011;3730;50.856;12.776;2023-09-19T02:49:32;2.53;;;1.80;;
7377;SDS011;3730;50.856;12.776;2023-09-19T02:51:59;2.20;;;1.70;;
7377;SDS011;3730;50.856;12.776;2023-09-19T02:54:25;3.77;;;2.10;;
7377;SDS011;3730;50.856;12.776;2023-09-19T02:56:54;1.80;;;1.60;;
7377;SDS011;3730;50.856;12.776;2023-09-19T02:59:20;2.20;;;1.50;;
7377;SDS011;3730;50.856;12.776;2023-09-19T03:01:46;2.80;;;1.63;;
7377;SDS011;3730;50.856;12.776;2023-09-19T03:04:13;1.93;;;1.50;;
7377;SDS011;3730;50.856;12.776;2023-09-19T03:06:44;3.67;;;1.53;;
7377;SDS011;3730;50.856;12.776;2023-09-19T03:09:10;3.10;;;1.80;;
7377;SDS011;3730;50.856;12.776;2023-09-19T03:11:37;3.17;;;1.80;;
7377;SDS011;3730;50.856;12.776;2023-09-19T03:14:05;2.03;;;1.80;;
7377;SDS011;3730;50.856;12.776;2023-09-19T03:16:31;3.93;;;1.80;;
7377;SDS011;3730;50.856;12.776;2023-09-19T03:18:58;2.93;;;1.30;;
7377;SDS011;3730;50.856;12.776;2023-09-19T03:21:24;2.03;;;1.43;;
7377;SDS011;3730;50.856;12.776;2023-09-19T03:23:53;4.93;;;1.70;;
7377;SDS011;3730;50.856;12.776;2023-09-19T03:26:19;2.43;;;1.70;;
7377;SDS011;3730;50.856;12.776;2023-09-19T03:28:45;4.03;;;1.33;;
7377;SDS011;3730;50.856;12.776;2023-09-19T03:31:12;2.20;;;1.70;;
7377;SDS011;3730;50.856;12.776;2023-09-19T03:33:38;3.90;;;1.70;;
7377;SDS011;3730;50.856;12.776;2023-09-19T03:36:04;3.37;;;1.40;;
7377;SDS011;3730;50.856;12.776;2023-09-19T03:38:30;1.93;;;1.70;;
7377;SDS011;3730;50.856;12.776;2023-09-19T03:40:57;3.57;;;1.70;;
7377;SDS011;3730;50.856;12.776;2023-09-19T03:43:24;1.60;;;1.50;;
7377;SDS011;3730;50.856;12.776;2023-09-19T03:45:50;2.03;;;1.83;;
7377;SDS011;3730;50.856;12.776;2023-09-19T03:48:16;2.47;;;1.60;;
7377;SDS011;3730;50.856;12.776;2023-09-19T03:50:42;2.87;;;1.60;;
7377;SDS011;3730;50.856;12.776;2023-09-19T03:53:09;2.90;;;1.80;;
7377;SDS011;3730;50.856;12.776;2023-09-19T03:55:35;1.70;;;1.60;;
7377;SDS011;3730;50.856;12.776;2023-09-19T03:58:04;2.37;;;1.70;;
7377;SDS011;3730;50.856;12.776;2023-09-19T04:00:30;2.03;;;1.60;;
7377;SDS011;3730;50.856;12.776;2023-09-19T04:02:56;1.67;;;1.53;;
7377;SDS011;3730;50.856;12.776;2023-09-19T04:05:23;2.10;;;1.90;;
7377;SDS011;3730;50.856;12.776;2023-09-19T04:07:49;2.33;;;1.70;;
7377;SDS011;3730;50.856;12.776;2023-09-19T04:10:15;2.33;;;1.70;;
7377;SDS011;3730;50.856;12.776;2023-09-19T04:12:51;1.60;;;1.50;;
7377;SDS011;3730;50.856;12.776;2023-09-19T04:15:18;3.43;;;1.50;;
7377;SDS011;3730;50.856;12.776;2023-09-19T04:17:44;1.97;;;1.50;;
7377;SDS011;3730;50.856;12.776;2023-09-19T04:20:10;3.13;;;1.80;;
7377;SDS011;3730;50.856;12.776;2023-09-19T04:22:37;2.37;;;1.80;;
7377;SDS011;3730;50.856;12.776;2023-09-19T04:25:04;4.03;;;1.70;;
7377;SDS011;3730;50.856;12.776;2023-09-19T04:27:32;2.20;;;1.70;;
7377;SDS011;3730;50.856;12.776;2023-09-19T04:29:58;2.43;;;1.50;;
7377;SDS011;3730;50.856;12.776;2023-09-19T04:32:29;1.83;;;1.60;;
7377;SDS011;3730;50.856;12.776;2023-09-19T04:34:57;2.53;;;1.77;;
7377;SDS011;3730;50.856;12.776;2023-09-19T04:37:25;2.83;;;1.77;;
7377;SDS011;3730;50.856;12.776;2023-09-19T04:39:51;3.27;;;1.77;;
7377;SDS011;3730;50.856;12.776;2023-09-19T04:42:17;2.73;;;1.63;;
7377;SDS011;3730;50.856;12.776;2023-09-19T04:44:44;1.70;;;1.60;;
7377;SDS011;3730;50.856;12.776;2023-09-19T04:47:09;1.90;;;1.63;;
7377;SDS011;3730;50.856;12.776;2023-09-19T04:49:37;1.60;;;1.50;;
7377;SDS011;3730;50.856;12.776;2023-09-19T04:52:04;3.43;;;1.60;;
7377;SDS011;3730;50.856;12.776;2023-09-19T04:54:30;2.87;;;1.80;;
7377;SDS011;3730;50.856;12.776;2023-09-19T04:56:56;1.77;;;1.40;;
7377;SDS011;3730;50.856;12.776;2023-09-19T04:59:21;3.23;;;1.50;;
7377;SDS011;3730;50.856;12.776;2023-09-19T05:01:48;1.70;;;1.53;;
7377;SDS011;3730;50.856;12.776;2023-09-19T05:04:14;2.17;;;1.40;;
7377;SDS011;3730;50.856;12.776;2023-09-19T05:06:39;2.37;;;1.60;;
7377;SDS011;3730;50.856;12.776;2023-09-19T05:09:05;3.87;;;3.17;;
7377;SDS011;3730;50.856;12.776;2023-09-19T05:11:31;2.57;;;2.00;;
7377;SDS011;3730;50.856;12.776;2023-09-19T05:13:58;1.87;;;1.77;;
7377;SDS011;3730;50.856;12.776;2023-09-19T05:16:28;1.70;;;1.60;;
7377;SDS011;3730;50.856;12.776;2023-09-19T05:18:56;2.33;;;2.00;;
7377;SDS011;3730;50.856;12.776;2023-09-19T05:21:23;3.37;;;1.60;;
7377;SDS011;3730;50.856;12.776;2023-09-19T05:23:51;5.27;;;1.70;;
7377;SDS011;3730;50.856;12.776;2023-09-19T05:26:17;4.90;;;2.00;;
7377;SDS011;3730;50.856;12.776;2023-09-19T05:28:43;2.33;;;2.07;;
7377;SDS011;3730;50.856;12.776;2023-09-19T05:31:08;1.90;;;1.70;;
7377;SDS011;3730;50.856;12.776;2023-09-19T05:33:34;2.93;;;2.00;;
7377;SDS011;3730;50.856;12.776;2023-09-19T05:36:00;3.27;;;1.60;;
7377;SDS011;3730;50.856;12.776;2023-09-19T05:38:25;2.80;;;1.80;;
7377;SDS011;3730;50.856;12.776;2023-09-19T05:40:51;1.93;;;1.70;;
7377;SDS011;3730;50.856;12.776;2023-09-19T05:43:17;2.73;;;1.60;;
7377;SDS011;3730;50.856;12.776;2023-09-19T05:45:43;3.00;;;1.80;;
7377;SDS011;3730;50.856;12.776;2023-09-19T05:48:14;2.00;;;1.80;;
7377;SDS011;3730;50.856;12.776;2023-09-19T05:50:41;3.77;;;2.00;;
7377;SDS011;3730;50.856;12.776;2023-09-19T05:53:07;1.90;;;1.70;;
7377;SDS011;3730;50.856;12.776;2023-09-19T05:55:33;2.00;;;1.80;;
7377;SDS011;3730;50.856;12.776;2023-09-19T05:57:59;1.97;;;1.43;;
7377;SDS011;3730;50.856;12.776;2023-09-19T06:00:25;2.47;;;1.60;;
7377;SDS011;3730;50.856;12.776;2023-09-19T06:02:55;3.73;;;1.60;;
7377;SDS011;3730;50.856;12.776;2023-09-19T06:05:22;2.40;;;1.30;;
7377;SDS011;3730;50.856;12.776;2023-09-19T06:07:49;2.73;;;1.50;;
7377;SDS011;3730;50.856;12.776;2023-09-19T06:10:16;3.07;;;2.00;;
7377;SDS011;3730;50.856;12.776;2023-09-19T06:12:42;3.77;;;2.00;;
7377;SDS011;3730;50.856;12.776;2023-09-19T06:15:12;1.97;;;1.50;;
7377;SDS011;3730;50.856;12.776;2023-09-19T06:17:46;4.70;;;1.60;;
7377;SDS011;3730;50.856;12.776;2023-09-19T06:20:23;3.47;;;1.50;;
7377;SDS011;3730;50.856;12.776;2023-09-19T06:22:49;2.70;;;1.87;;
7377;SDS011;3730;50.856;12.776;2023-09-19T06:25:15;1.87;;;1.63;;
7377;SDS011;3730;50.856;12.776;2023-09-19T06:27:53;2.03;;;1.60;;
7377;SDS011;3730;50.856;12.776;2023-09-19T06:30:20;2.57;;;1.70;;
7377;SDS011;3730;50.856;12.776;2023-09-19T06:32:48;1.57;;;1.47;;
7377;SDS011;3730;50.856;12.776;2023-09-19T06:35:15;4.43;;;1.70;;
7377;SDS011;3730;50.856;12.776;2023-09-19T06:37:41;2.90;;;1.77;;
7377;SDS011;3730;50.856;12.776;2023-09-19T06:40:08;1.60;;;1.50;;
7377;SDS011;3730;50.856;12.776;2023-09-19T06:42:39;2.17;;;1.50;;
7377;SDS011;3730;50.856;12.776;2023-09-19T06:45:12;1.50;;;1.40;;
7377;SDS011;3730;50.856;12.776;2023-09-19T06:47:43;1.70;;;1.60;;
7377;SDS011;3730;50.856;12.776;2023-09-19T06:50:10;3.13;;;1.43;;
7377;SDS011;3730;50.856;12.776;2023-09-19T06:52:42;3.83;;;1.53;;
7377;SDS011;3730;50.856;12.776;2023-09-19T06:55:08;2.37;;;1.50;;
7377;SDS011;3730;50.856;12.776;2023-09-19T06:57:38;3.37;;;1.57;;
7377;SDS011;3730;50.856;12.776;2023-09-19T07:00:06;3.47;;;1.50;;
7377;SDS011;3730;50.856;12.776;2023-09-19T07:03:02;2.40;;;1.70;;
7377;SDS011;3730;50.856;12.776;2023-09-19T07:05:28;2.27;;;2.00;;
7377;SDS011;3730;50.856;12.776;2023-09-19T07:07:59;3.03;;;1.60;;
7377;SDS011;3730;50.856;12.776;2023-09-19T07:10:25;3.03;;;1.43;;
7377;SDS011;3730;50.856;12.776;2023-09-19T07:13:02;2.53;;;1.60;;
7377;SDS011;3730;50.856;12.776;2023-09-19T07:15:29;2.23;;;1.53;;
7377;SDS011;3730;50.856;12.776;2023-09-19T07:17:58;2.60;;;1.40;;
7377;SDS011;3730;50.856;12.776;2023-09-19T07:20:26;4.03;;;1.40;;
7377;SDS011;3730;50.856;12.776;2023-09-19T07:22:52;3.23;;;1.83;;
7377;SDS011;3730;50.856;12.776;2023-09-19T07:25:20;3.07;;;1.50;;
7377;SDS011;3730;50.856;12.776;2023-09-19T07:27:46;3.10;;;1.33;;
7377;SDS011;3730;50.856;12.776;2023-09-19T07:30:12;2.13;;;1.53;;
7377;SDS011;3730;50.856;12.776;2023-09-19T07:32:40;1.70;;;1.40;;
7377;SDS011;3730;50.856;12.776;2023-09-19T07:35:06;2.37;;;1.50;;
7377;SDS011;3730;50.856;12.776;2023-09-19T07:37:32;3.80;;;1.40;;
7377;SDS011;3730;50.856;12.776;2023-09-19T07:39:58;1.70;;;1.20;;
7377;SDS011;3730;50.856;12.776;2023-09-19T07:42:26;2.47;;;1.37;;
7377;SDS011;3730;50.856;12.776;2023-09-19T07:44:52;2.57;;;1.40;;
7377;SDS011;3730;50.856;12.776;2023-09-19T07:47:19;2.67;;;1.40;;
7377;SDS011;3730;50.856;12.776;2023-09-19T07:49:48;1.40;;;1.30;;
7377;SDS011;3730;50.856;12.776;2023-09-19T07:52:15;1.53;;;1.40;;
7377;SDS011;3730;50.856;12.776;2023-09-19T07:54:41;1.90;;;1.50;;
7377;SDS011;3730;50.856;12.776;2023-09-19T07:57:09;2.37;;;1.07;;
7377;SDS011;3730;50.856;12.776;2023-09-19T07:59:36;4.37;;;1.60;;
7377;SDS011;3730;50.856;12.776;2023-09-19T08:02:04;1.50;;;1.20;;
7377;SDS011;3730;50.856;12.776;2023-09-19T08:04:33;3.07;;;1.23;;
7377;SDS011;3730;50.856;12.776;2023-09-19T08:06:59;2.47;;;1.37;;
7377;SDS011;3730;50.856;12.776;2023-09-19T08:09:26;4.97;;;1.20;;
7377;SDS011;3730;50.856;12.776;2023-09-19T08:11:52;1.63;;;1.30;;
7377;SDS011;3730;50.856;12.776;2023-09-19T08:14:22;2.80;;;1.43;;
7377;SDS011;3730;50.856;12.776;2023-09-19T08:16:50;2.00;;;1.30;;
7377;SDS011;3730;50.856;12.776;2023-09-19T08:19:16;1.77;;;1.20;;
7377;SDS011;3730;50.856;12.776;2023-09-19T08:21:42;2.17;;;1.33;;
7377;SDS011;3730;50.856;12.776;2023-09-19T08:24:12;2.73;;;1.50;;
7377;SDS011;3730;50.856;12.776;2023-09-19T08:26:39;1.37;;;1.20;;
7377;SDS011;3730;50.856;12.776;2023-09-19T08:29:05;1.63;;;1.23;;
7377;SDS011;3730;50.856;12.776;2023-09-19T08:31:43;1.87;;;1.43;;
7377;SDS011;3730;50.856;12.776;2023-09-19T08:34:11;2.77;;;1.23;;
7377;SDS011;3730;50.856;12.776;2023-09-19T08:36:38;2.20;;;1.40;;
7377;SDS011;3730;50.856;12.776;2023-09-19T08:39:06;1.33;;;1.10;;
7377;SDS011;3730;50.856;12.776;2023-09-19T08:41:33;2.10;;;1.20;;
7377;SDS011;3730;50.856;12.776;2023-09-19T08:43:59;4.13;;;1.63;;
7377;SDS011;3730;50.856;12.776;2023-09-19T08:46:29;1.27;;;1.00;;
7377;SDS011;3730;50.856;12.776;2023-09-19T08:49:07;1.63;;;1.10;;
7377;SDS011;3730;50.856;12.776;2023-09-19T08:51:44;3.50;;;0.93;;
7377;SDS011;3730;50.856;12.776;2023-09-19T08:54:31;1.63;;;1.00;;
7377;SDS011;3730;50.856;12.776;2023-09-19T08:56:59;1.23;;;1.00;;
7377;SDS011;3730;50.856;12.776;2023-09-19T08:59:27;0.87;;;0.87;;
7377;SDS011;3730;50.856;12.776;2023-09-19T09:01:54;1.63;;;1.03;;
7377;SDS011;3730;50.856;12.776;2023-09-19T09:04:21;3.07;;;1.10;;
7377;SDS011;3730;50.856;12.776;2023-09-19T09:06:48;1.77;;;0.90;;
7377;SDS011;3730;50.856;12.776;2023-09-19T09:09:18;1.37;;;1.27;;
7377;SDS011;3730;50.856;12.776;2023-09-19T09:11:44;2.03;;;1.10;;
7377;SDS011;3730;50.856;12.776;2023-09-19T09:14:11;1.27;;;1.10;;
7377;SDS011;3730;50.856;12.776;2023-09-19T09:16:37;2.47;;;1.10;;
7377;SDS011;3730;50.856;12.776;2023-09-19T09:19:04;1.83;;;1.20;;
7377;SDS011;3730;50.856;12.776;2023-09-19T09:21:30;1.53;;;1.03;;
7377;SDS011;3730;50.856;12.776;2023-09-19T09:26:46;1.40;;;0.97;;
7377;SDS011;3730;50.856;12.776;2023-09-19T09:29:14;1.60;;;1.20;;
7377;SDS011;3730;50.856;12.776;2023-09-19T09:31:40;2.07;;;0.90;;
7377;SDS011;3730;50.856;12.776;2023-09-19T09:34:07;2.73;;;1.00;;
7377;SDS011;3730;50.856;12.776;2023-09-19T09:36:35;3.07;;;1.10;;
7377;SDS011;3730;50.856;12.776;2023-09-19T09:39:01;1.50;;;1.10;;
7377;SDS011;3730;50.856;12.776;2023-09-19T09:41:41;1.77;;;1.17;;
7377;SDS011;3730;50.856;12.776;2023-09-19T09:44:14;1.30;;;0.90;;
7377;SDS011;3730;50.856;12.776;2023-09-19T09:46:43;3.50;;;0.93;;
7377;SDS011;3730;50.856;12.776;2023-09-19T09:49:21;1.10;;;1.00;;
7377;SDS011;3730;50.856;12.776;2023-09-19T09:55:02;4.20;;;1.00;;
7377;SDS011;3730;50.856;12.776;2023-09-19T09:57:32;2.60;;;1.17;;
7377;SDS011;3730;50.856;12.776;2023-09-19T09:59:59;1.53;;;1.10;;
7377;SDS011;3730;50.856;12.776;2023-09-19T10:02:38;1.00;;;0.90;;
7377;SDS011;3730;50.856;12.776;2023-09-19T10:05:17;1.57;;;1.20;;
7377;SDS011;3730;50.856;12.776;2023-09-19T10:07:52;1.90;;;0.77;;
7377;SDS011;3730;50.856;12.776;2023-09-19T10:10:31;2.53;;;1.20;;
7377;SDS011;3730;50.856;12.776;2023-09-19T10:13:08;4.10;;;1.30;;
7377;SDS011;3730;50.856;12.776;2023-09-19T10:15:37;1.60;;;1.30;;
7377;SDS011;3730;50.856;12.776;2023-09-19T10:18:06;2.03;;;1.40;;
7377;SDS011;3730;50.856;12.776;2023-09-19T10:20:36;2.20;;;1.10;;
7377;SDS011;3730;50.856;12.776;2023-09-19T10:23:09;2.53;;;1.40;;
7377;SDS011;3730;50.856;12.776;2023-09-19T10:25:45;3.20;;;1.27;;
7377;SDS011;3730;50.856;12.776;2023-09-19T10:28:13;1.07;;;1.03;;
7377;SDS011;3730;50.856;12.776;2023-09-19T10:30:44;2.67;;;1.13;;
7377;SDS011;3730;50.856;12.776;2023-09-19T10:33:13;1.33;;;1.10;;
7377;SDS011;3730;50.856;12.776;2023-09-19T10:35:42;1.23;;;1.13;;
7377;SDS011;3730;50.856;12.776;2023-09-19T10:38:12;2.40;;;1.17;;
7377;SDS011;3730;50.856;12.776;2023-09-19T10:40:39;1.70;;;1.10;;
7377;SDS011;3730;50.856;12.776;2023-09-19T10:43:11;1.87;;;1.20;;
7377;SDS011;3730;50.856;12.776;2023-09-19T10:45:38;2.40;;;1.30;;
7377;SDS011;3730;50.856;12.776;2023-09-19T10:48:04;2.40;;;1.10;;
7377;SDS011;3730;50.856;12.776;2023-09-19T10:50:36;2.20;;;1.00;;
7377;SDS011;3730;50.856;12.776;2023-09-19T10:53:10;1.33;;;0.93;;
7377;SDS011;3730;50.856;12.776;2023-09-19T10:55:37;3.17;;;1.30;;
7377;SDS011;3730;50.856;12.776;2023-09-19T10:58:06;1.80;;;1.20;;
7377;SDS011;3730;50.856;12.776;2023-09-19T11:00:49;3.20;;;1.23;;
7377;SDS011;3730;50.856;12.776;2023-09-19T11:06:03;2.27;;;1.30;;
7377;SDS011;3730;50.856;12.776;2023-09-19T11:08:51;2.70;;;1.77;;
7377;SDS011;3730;50.856;12.776;2023-09-19T11:14:15;4.63;;;1.53;;
7377;SDS011;3730;50.856;12.776;2023-09-19T11:19:57;2.57;;;1.10;;
7377;SDS011;3730;50.856;12.776;2023-09-19T11:22:13;4.13;;;1.40;;
7377;SDS011;3730;50.856;12.776;2023-09-19T11:24:39;1.80;;;1.47;;
7377;SDS011;3730;50.856;12.776;2023-09-19T11:27:13;2.27;;;1.33;;
7377;SDS011;3730;50.856;12.776;2023-09-19T11:29:42;5.20;;;1.40;;
7377;SDS011;3730;50.856;12.776;2023-09-19T11:32:08;3.20;;;1.43;;
7377;SDS011;3730;50.856;12.776;2023-09-19T11:34:42;3.43;;;1.37;;
7377;SDS011;3730;50.856;12.776;2023-09-19T11:39:37;2.23;;;1.53;;
7377;SDS011;3730;50.856;12.776;2023-09-19T11:44:49;3.03;;;1.50;;
7377;SDS011;3730;50.856;12.776;2023-09-19T11:47:17;1.97;;;1.50;;
7377;SDS011;3730;50.856;12.776;2023-09-19T11:49:44;3.03;;;1.57;;
7377;SDS011;3730;50.856;12.776;2023-09-19T11:52:10;3.97;;;1.60;;
7377;SDS011;3730;50.856;12.776;2023-09-19T11:54:53;2.60;;;1.80;;
7377;SDS011;3730;50.856;12.776;2023-09-19T11:57:22;3.10;;;1.40;;
7377;SDS011;3730;50.856;12.776;2023-09-19T11:59:48;3.00;;;1.87;;
7377;SDS011;3730;50.856;12.776;2023-09-19T12:02:18;1.60;;;1.50;;
7377;SDS011;3730;50.856;12.776;2023-09-19T12:04:54;2.33;;;1.63;;
7377;SDS011;3730;50.856;12.776;2023-09-19T12:07:20;2.30;;;1.50;;
7377;SDS011;3730;50.856;12.776;2023-09-19T12:09:50;2.23;;;1.80;;
7377;SDS011;3730;50.856;12.776;2023-09-19T12:12:20;2.60;;;1.67;;
7377;SDS011;3730;50.856;12.776;2023-09-19T12:14:48;2.43;;;1.67;;
7377;SDS011;3730;50.856;12.776;2023-09-19T12:17:15;3.13;;;1.70;;
7377;SDS011;3730;50.856;12.776;2023-09-19T12:22:46;2.77;;;1.87;;
7377;SDS011;3730;50.856;12.776;2023-09-19T12:25:14;3.60;;;1.97;;
7377;SDS011;3730;50.856;12.776;2023-09-19T12:27:45;2.37;;;1.90;;
7377;SDS011;3730;50.856;12.776;2023-09-19T12:30:18;3.00;;;1.90;;
7377;SDS011;3730;50.856;12.776;2023-09-19T12:32:46;2.27;;;2.00;;
7377;SDS011;3730;50.856;12.776;2023-09-19T12:35:30;2.90;;;1.70;;
7377;SDS011;3730;50.856;12.776;2023-09-19T12:38:00;2.53;;;1.90;;
7377;SDS011;3730;50.856;12.776;2023-09-19T12:40:28;3.43;;;2.00;;
7377;SDS011;3730;50.856;12.776;2023-09-19T12:42:58;2.93;;;2.00;;
7377;SDS011;3730;50.856;12.776;2023-09-19T12:45:25;4.50;;;2.20;;
7377;SDS011;3730;50.856;12.776;2023-09-19T12:51:00;1.80;;;1.70;;
7377;SDS011;3730;50.856;12.776;2023-09-19T12:53:30;3.47;;;2.20;;
7377;SDS011;3730;50.856;12.776;2023-09-19T12:55:59;2.10;;;1.90;;
7377;SDS011;3730;50.856;12.776;2023-09-19T12:58:25;3.00;;;1.87;;
7377;SDS011;3730;50.856;12.776;2023-09-19T13:00:52;1.97;;;1.77;;
7377;SDS011;3730;50.856;12.776;2023-09-19T13:03:19;4.90;;;2.60;;
7377;SDS011;3730;50.856;12.776;2023-09-19T13:05:54;2.13;;;1.90;;
7377;SDS011;3730;50.856;12.776;2023-09-19T13:08:21;2.23;;;2.03;;
7377;SDS011;3730;50.856;12.776;2023-09-19T13:11:01;3.83;;;2.30;;
7377;SDS011;3730;50.856;12.776;2023-09-19T13:13:27;3.37;;;2.20;;
7377;SDS011;3730;50.856;12.776;2023-09-19T13:15:54;3.07;;;1.90;;
7377;SDS011;3730;50.856;12.776;2023-09-19T13:18:23;3.90;;;1.93;;
7377;SDS011;3730;50.856;12.776;2023-09-19T13:21:09;2.53;;;2.00;;
7377;SDS011;3730;50.856;12.776;2023-09-19T13:23:51;3.27;;;1.70;;
7377;SDS011;3730;50.856;12.776;2023-09-19T13:26:17;2.70;;;2.00;;
7377;SDS011;3730;50.856;12.776;2023-09-19T13:28:44;2.80;;;1.73;;
7377;SDS011;3730;50.856;12.776;2023-09-19T13:31:13;2.50;;;1.80;;
7377;SDS011;3730;50.856;12.776;2023-09-19T13:33:42;2.00;;;1.80;;
7377;SDS011;3730;50.856;12.776;2023-09-19T13:36:10;4.33;;;1.80;;
7377;SDS011;3730;50.856;12.776;2023-09-19T13:38:37;3.57;;;1.93;;
7377;SDS011;3730;50.856;12.776;2023-09-19T13:41:03;2.13;;;1.80;;
7377;SDS011;3730;50.856;12.776;2023-09-19T13:43:29;2.77;;;2.27;;
7377;SDS011;3730;50.856;12.776;2023-09-19T13:45:55;2.50;;;1.87;;
7377;SDS011;3730;50.856;12.776;2023-09-19T13:48:23;2.30;;;2.10;;
7377;SDS011;3730;50.856;12.776;2023-09-19T13:50:49;4.00;;;3.70;;
7377;SDS011;3730;50.856;12.776;2023-09-19T13:53:15;4.43;;;1.90;;
7377;SDS011;3730;50.856;12.776;2023-09-19T13:55:42;2.27;;;2.07;;
7377;SDS011;3730;50.856;12.776;2023-09-19T13:58:08;3.37;;;2.30;;
7377;SDS011;3730;50.856;12.776;2023-09-19T14:00:36;3.77;;;1.80;;
7377;SDS011;3730;50.856;12.776;2023-09-19T14:03:03;2.63;;;1.90;;
7377;SDS011;3730;50.856;12.776;2023-09-19T14:05:30;2.80;;;1.70;;
7377;SDS011;3730;50.856;12.776;2023-09-19T14:07:56;3.13;;;1.70;;
7377;SDS011;3730;50.856;12.776;2023-09-19T14:10:24;3.23;;;2.40;;
7377;SDS011;3730;50.856;12.776;2023-09-19T14:12:55;5.97;;;2.47;;
7377;SDS011;3730;50.856;12.776;2023-09-19T14:15:23;3.40;;;1.90;;
7377;SDS011;3730;50.856;12.776;2023-09-19T14:17:55;2.40;;;2.20;;
7377;SDS011;3730;50.856;12.776;2023-09-19T14:20:21;3.23;;;2.10;;
7377;SDS011;3730;50.856;12.776;2023-09-19T14:22:48;3.10;;;2.30;;
7377;SDS011;3730;50.856;12.776;2023-09-19T14:25:14;2.70;;;2.17;;
7377;SDS011;3730;50.856;12.776;2023-09-19T14:27:41;5.80;;;2.30;;
7377;SDS011;3730;50.856;12.776;2023-09-19T14:30:07;4.27;;;2.23;;
7377;SDS011;3730;50.856;12.776;2023-09-19T14:32:34;4.03;;;2.20;;
7377;SDS011;3730;50.856;12.776;2023-09-19T14:35:01;5.70;;;3.87;;
7377;SDS011;3730;50.856;12.776;2023-09-19T14:37:27;2.60;;;1.77;;
7377;SDS011;3730;50.856;12.776;2023-09-19T14:39:53;2.60;;;1.90;;
7377;SDS011;3730;50.856;12.776;2023-09-19T14:42:19;2.73;;;2.20;;
7377;SDS011;3730;50.856;12.776;2023-09-19T14:44:46;2.47;;;2.27;;
7377;SDS011;3730;50.856;12.776;2023-09-19T14:47:15;3.17;;;2.23;;
7377;SDS011;3730;50.856;12.776;2023-09-19T14:49:43;3.83;;;2.50;;
7377;SDS011;3730;50.856;12.776;2023-09-19T14:52:11;3.53;;;2.60;;
7377;SDS011;3730;50.856;12.776;2023-09-19T14:54:40;3.43;;;2.63;;
7377;SDS011;3730;50.856;12.776;2023-09-19T14:57:09;7.37;;;2.60;;
7377;SDS011;3730;50.856;12.776;2023-09-19T14:59:35;2.73;;;2.20;;
7377;SDS011;3730;50.856;12.776;2023-09-19T15:02:03;3.03;;;2.10;;
7377;SDS011;3730;50.856;12.776;2023-09-19T15:04:29;2.93;;;2.00;;
7377;SDS011;3730;50.856;12.776;2023-09-19T15:06:55;4.60;;;2.23;;
7377;SDS011;3730;50.856;12.776;2023-09-19T15:09:24;5.10;;;2.97;;
7377;SDS011;3730;50.856;12.776;2023-09-19T15:11:54;5.50;;;2.50;;
7377;SDS011;3730;50.856;12.776;2023-09-19T15:14:23;4.50;;;2.33;;
7377;SDS011;3730;50.856;12.776;2023-09-19T15:16:54;3.63;;;2.77;;
7377;SDS011;3730;50.856;12.776;2023-09-19T15:19:21;3.50;;;2.43;;
7377;SDS011;3730;50.856;12.776;2023-09-19T15:21:47;3.67;;;2.43;;
7377;SDS011;3730;50.856;12.776;2023-09-19T15:24:13;4.00;;;2.40;;
7377;SDS011;3730;50.856;12.776;2023-09-19T15:26:40;4.80;;;2.70;;
7377;SDS011;3730;50.856;12.776;2023-09-19T15:29:08;4.27;;;2.87;;
7377;SDS011;3730;50.856;12.776;2023-09-19T15:31:35;3.63;;;2.97;;
7377;SDS011;3730;50.856;12.776;2023-09-19T15:34:04;4.07;;;2.80;;
7377;SDS011;3730;50.856;12.776;2023-09-19T15:36:33;5.20;;;4.80;;
7377;SDS011;3730;50.856;12.776;2023-09-19T15:39:04;5.07;;;2.30;;
7377;SDS011;3730;50.856;12.776;2023-09-19T15:41:37;3.00;;;2.27;;
7377;SDS011;3730;50.856;12.776;2023-09-19T15:44:03;4.63;;;2.50;;
7377;SDS011;3730;50.856;12.776;2023-09-19T15:46:32;4.30;;;3.00;;
7377;SDS011;3730;50.856;12.776;2023-09-19T15:49:00;5.47;;;2.47;;